• Join FlightAware (Why Join?)
  • Login
  • US Flag 
10:36AM EDT


 

Airport Tracker/Info


-or-


 

Live Flight TrackerFlight Track Log ✈ SWA350 ✈ 16-Apr-2013 ✈ KMSY - KDAL

Flight Track Log - Related Links

Times and Time Zones

All times are in EDT time to prevent confusion due to time zone crossing. See the SWA350 flight status page for this flight to view local times or setup timezone preferences in your user account.

Time Position Orientation Groundspeed Altitude Reporting Facility
EDT Latitude Longitude Course Direction KTS MPH feet Rate Location/Type
09:10AM 29.9881 -90.2406 93° East 156 180 1,200  Level Houston Center
09:11AM 29.9869 -90.1797 91° East 314 361 3,200 1,980 Climbing Houston Center
09:12AM 30.0442 -90.1978 345° North 267 307 5,300 2,580 Climbing Houston Center
09:13AM 30.0839 -90.2756 301° West 276 318 8,600 2,580 Climbing Houston Center
09:15AM 30.1253 -90.3525 302° West 281 323 10,700 2,100 Climbing Houston Center
09:16AM 30.1789 -90.4469 303° West 347 399 13,000 2,580 Climbing Houston Center
09:17AM 30.2369 -90.5394 306° West 353 406 16,100 2,580 Climbing Houston Center
09:18AM 30.3117 -90.6522 308° West 367 422 18,400 2,340 Climbing Houston Center
09:19AM 30.3803 -90.7456 310° West 378 435 21,000 1,980 Climbing Houston Center
09:20AM 30.4478 -90.8406 310° West 382 440 22,500 1,560 Climbing Houston Center
09:21AM 30.5197 -90.9394 310° West 398 458 24,200 1,500 Climbing Houston Center
09:22AM 30.5775 -91.0517 301° West 410 472 25,600 1,680 Climbing Houston Center
09:23AM 30.6314 -91.1667 299° West 407 468 27,700 2,040 Climbing Houston Center
09:24AM 30.6842 -91.2783 299° West 395 455 29,900 1,740 Climbing Houston Center
09:25AM 30.7444 -91.4047 299° West 386 444 31,400 1,500 Climbing Houston Center
09:26AM 30.7997 -91.5172 300° West 396 456 33,000 1,500 Climbing Houston Center
09:27AM 30.8508 -91.6269 299° West 390 449 34,500 1,440 Climbing Houston Center
09:28AM 30.9014 -91.7342 299° West 380 437 36,000 720 Climbing Houston Center
09:29AM 30.9525 -91.8444 298° West 383 441 36,000  Level Houston Center
09:30AM 31.0053 -91.9589 298° West 395 455 36,000  Level Houston Center
09:31AM 31.0686 -92.0939 299° West 396 456 36,000  Level Houston Center
09:32AM 31.1203 -92.2061 298° West 393 452 36,000  Level Houston Center
09:33AM 31.1711 -92.3161 298° West 388 447 36,000  Level Houston Center
09:34AM 31.2225 -92.4286 298° West 389 448 36,000  Level Houston Center
09:35AM 31.2781 -92.5417 300° West 396 456 36,000  Level Houston Center
09:36AM 31.3200 -92.6564 293° West 389 448 36,000  Level Houston Center
09:37AM 31.3636 -92.7833 292° West 390 449 36,000  Level Houston Center
09:38AM 31.4069 -92.8978 294° West 386 444 36,000  Level Houston Center
09:39AM 31.4500 -93.0117 294° West 384 442 36,000  Level Houston Center
09:40AM 31.4925 -93.1269 293° West 385 443 36,000  Level Houston Center
09:41AM 31.5358 -93.2417 294° West 385 443 36,000  Level Houston Center
09:42AM 31.5858 -93.3783 293° West 383 441 36,000  Level Houston Center
09:43AM 31.6289 -93.4931 294° West 384 442 36,000  Level Houston Center
09:44AM 31.6628 -93.5914 292° West 389 448 36,000  Level Fort Worth Center
09:45AM 31.7036 -93.7044 293° West 389 448 36,000  Level Fort Worth Center
09:46AM 31.7406 -93.8225 290° West 389 448 36,000  Level Fort Worth Center
09:47AM 31.7814 -93.9383 293° West 389 448 36,000  Level Fort Worth Center
09:48AM 31.8244 -94.0614 292° West 377 434 36,000  Level Fort Worth Center
09:49AM 31.8631 -94.1797 291° West 377 434 36,000  Level Fort Worth Center
09:50AM 31.9033 -94.2958 292° West 382 440 36,000  Level Fort Worth Center
09:51AM 31.9439 -94.4119 292° West 382 440 36,000  Level Fort Worth Center
09:52AM 31.9800 -94.5308 290° West 382 440 36,000  Level Fort Worth Center
09:53AM 32.0203 -94.6469 292° West 382 440 36,000  Level Fort Worth Center
09:54AM 32.0581 -94.7636 291° West 387 445 36,000  Level Fort Worth Center
09:55AM 32.0939 -94.8778 290° West 381 438 36,000 -60 Level Fort Worth Center
09:56AM 32.1336 -94.9894 293° West 376 433 35,900 -1,500 Descending Fort Worth Center
09:57AM 32.1714 -95.1064 291° West 376 433 33,000 -2,940 Descending Fort Worth Center
09:58AM 32.2089 -95.2208 291° West 376 433 30,100 -2,700 Descending Fort Worth Center
09:59AM 32.2444 -95.3378 290° West 381 438 27,700 -2,340 Descending Fort Worth Center
10:00AM 32.2839 -95.4547 292° West 386 444 25,500 -1,860 Descending Fort Worth Center
10:01AM 32.3189 -95.5672 290° West 378 435 24,000 -1,260 Descending Fort Worth Center
10:02AM 32.3536 -95.6647 293° West 373 429 23,000 -1,980 Descending Fort Worth Center
10:03AM 32.3908 -95.7822 291° West 373 429 20,100 -3,300 Descending Fort Worth Center
10:05AM 32.4667 -96.0319 290° West 386 444 13,200 -3,120 Descending Fort Worth Center
10:06AM 32.5014 -96.1447 290° West 386 444 10,900 -1,500 Descending Fort Worth Center
10:07AM 32.5314 -96.2356 291° West 355 409 10,300 -900 Descending Fort Worth Center
10:08AM 32.5636 -96.3339 291° West 306 352 9,100 -1,080 Descending Fort Worth Center
10:09AM 32.6039 -96.4047 304° West 287 330 8,200 -1,380 Descending Fort Worth Center
10:10AM 32.6525 -96.4906 304° West 287 330 6,400 -1,620 Descending Fort Worth Center
10:11AM 32.6989 -96.5542 311° West 286 329 5,000 -720 Descending Fort Worth Center
10:12AM 32.7661 -96.6203 320° Northwest 281 323 5,000  Level Fort Worth Center
10:13AM 32.8144 -96.6744 317° Northwest 281 323 5,000 -960 Level Fort Worth Center
10:14AM 32.8733 -96.7456 315° West 275 316 3,100 -1,080 Descending Fort Worth Center
10:15AM 32.9167 -96.8000 313° West 260 299 3,100 -60 Level Dallas / Fort Worth TRACON
10:16AM 32.9333 -96.8500 292° West 234 269 3,000 -540 Descending Dallas / Fort Worth TRACON
10:17AM 32.9333 -96.9167 270° West 193 222 2,100 -720 Descending Dallas / Fort Worth TRACON
10:18AM 32.8833 -96.9000 164° South 156 180 1,600 -660 Descending Dallas / Fort Worth TRACON
10:19AM 32.8667 -96.8833 140° Southeast 134 154 900 -780 Descending Dallas / Fort Worth TRACON
10:22AM 32.8471 -96.8518 140° Southeast  Level Estimated